createdAt,value
2018-05-07T00:00:54.360Z,3.27
2018-05-07T00:03:21.373Z,3.43
2018-05-07T00:05:47.672Z,3.73
2018-05-07T00:08:14.580Z,3.30
2018-05-07T00:10:41.693Z,3.20
2018-05-07T00:13:07.920Z,3.10
2018-05-07T00:15:35.422Z,3.10
2018-05-07T00:18:01.656Z,3.07
2018-05-07T00:20:28.833Z,3.57
2018-05-07T00:22:55.848Z,2.80
2018-05-07T00:25:22.768Z,3.10
2018-05-07T00:27:49.180Z,3.10
2018-05-07T00:30:16.928Z,2.70
2018-05-07T00:32:43.674Z,3.37
2018-05-07T00:35:11.244Z,2.97
2018-05-07T00:37:38.030Z,3.10
2018-05-07T00:40:05.065Z,3.27
2018-05-07T00:42:32.196Z,3.10
2018-05-07T00:44:59.657Z,2.97
2018-05-07T00:47:26.086Z,2.83
2018-05-07T00:49:53.691Z,3.43
2018-05-07T00:52:20.399Z,3.13
2018-05-07T00:54:59.131Z,2.90
2018-05-07T00:57:26.138Z,2.93
2018-05-07T00:59:52.381Z,3.07
2018-05-07T01:02:19.304Z,2.90
2018-05-07T01:04:45.529Z,3.50
2018-05-07T01:07:11.728Z,3.27
2018-05-07T01:09:37.937Z,2.97
2018-05-07T01:12:04.273Z,3.20
2018-05-07T01:14:31.492Z,2.93
2018-05-07T01:16:57.692Z,3.50
2018-05-07T01:19:31.826Z,3.10
2018-05-07T01:21:58.008Z,2.80
2018-05-07T01:24:24.190Z,3.20
2018-05-07T01:26:50.403Z,3.00
2018-05-07T01:29:16.860Z,3.10
2018-05-07T01:31:43.078Z,3.00
2018-05-07T01:34:10.161Z,2.97
2018-05-07T01:36:36.974Z,3.37
2018-05-07T01:39:03.493Z,3.40
2018-05-07T01:41:30.755Z,3.23
2018-05-07T01:43:57.781Z,3.03
2018-05-07T01:46:24.260Z,3.70
2018-05-07T01:48:51.459Z,3.30
2018-05-07T01:51:18.226Z,3.13
2018-05-07T01:53:44.430Z,3.77
2018-05-07T01:56:11.063Z,3.00
2018-05-07T01:58:37.909Z,3.10
2018-05-07T02:01:05.721Z,3.53
2018-05-07T02:03:32.268Z,3.10
2018-05-07T02:06:00.758Z,3.13
2018-05-07T02:08:27.522Z,3.40
2018-05-07T02:10:54.770Z,3.03
2018-05-07T02:13:22.252Z,3.50
2018-05-07T02:15:49.485Z,3.40
2018-05-07T02:18:17.044Z,3.00
2018-05-07T02:20:43.499Z,3.03
2018-05-07T02:23:09.729Z,2.97
2018-05-07T02:25:36.938Z,2.93
2018-05-07T02:28:03.901Z,3.00
2018-05-07T02:30:30.653Z,3.20
2018-05-07T02:32:56.873Z,3.07
2018-05-07T02:35:23.085Z,2.67
2018-05-07T02:37:50.359Z,3.23
2018-05-07T02:40:16.875Z,2.93
2018-05-07T02:42:44.367Z,3.20
2018-05-07T02:45:11.159Z,3.17
2018-05-07T02:47:39.601Z,2.67
2018-05-07T02:50:07.119Z,3.00
2018-05-07T02:52:34.164Z,2.70
2018-05-07T02:55:01.362Z,3.27
2018-05-07T02:57:27.539Z,3.10
2018-05-07T02:59:54.016Z,3.13
2018-05-07T03:02:21.026Z,3.00
2018-05-07T03:04:47.281Z,2.90
2018-05-07T03:07:14.140Z,3.40
2018-05-07T03:09:40.882Z,3.00
2018-05-07T03:12:07.574Z,3.30
2018-05-07T03:14:33.781Z,2.83
2018-05-07T03:17:01.371Z,3.20
2018-05-07T03:19:35.287Z,2.40
2018-05-07T03:22:02.142Z,3.00
2018-05-07T03:24:29.488Z,2.63
2018-05-07T03:26:57.238Z,3.00
2018-05-07T03:29:23.449Z,2.97
2018-05-07T03:31:50.386Z,2.93
2018-05-07T03:34:17.931Z,3.13
2018-05-07T03:36:44.724Z,2.80
2018-05-07T03:39:10.939Z,3.00
2018-05-07T03:41:38.165Z,3.27
2018-05-07T03:44:05.447Z,3.00
2018-05-07T03:46:32.219Z,3.20
2018-05-07T03:48:58.632Z,2.73
2018-05-07T03:51:25.417Z,3.07
2018-05-07T03:53:52.249Z,3.40
2018-05-07T03:56:18.477Z,2.80
2018-05-07T03:58:44.673Z,3.00
2018-05-07T04:01:11.573Z,2.87
2018-05-07T04:03:38.765Z,3.90
2018-05-07T04:06:06.204Z,2.73
2018-05-07T04:08:33.826Z,3.07
2018-05-07T04:11:00.657Z,3.13
2018-05-07T04:13:27.388Z,3.17
2018-05-07T04:15:53.569Z,3.00
2018-05-07T04:18:32.134Z,2.90
2018-05-07T04:21:09.989Z,3.10
2018-05-07T04:23:50.227Z,2.57
2018-05-07T04:26:17.521Z,3.50
2018-05-07T04:28:44.535Z,2.83
2018-05-07T04:31:10.733Z,2.90
2018-05-07T04:33:36.955Z,2.57
2018-05-07T04:36:03.510Z,3.10
2018-05-07T04:38:31.103Z,2.83
2018-05-07T04:40:57.858Z,3.00
2018-05-07T04:43:24.086Z,2.50
2018-05-07T04:45:51.809Z,2.90
2018-05-07T04:48:19.827Z,2.83
2018-05-07T04:50:46.623Z,2.50
2018-05-07T04:53:13.673Z,2.67
2018-05-07T04:55:40.147Z,2.93
2018-05-07T04:58:06.992Z,2.60
2018-05-07T05:00:33.258Z,3.00
2018-05-07T05:03:00.282Z,2.90
2018-05-07T05:05:26.522Z,2.90
2018-05-07T05:07:52.727Z,2.70
2018-05-07T05:10:19.732Z,3.00
2018-05-07T05:12:45.984Z,3.03
2018-05-07T05:15:12.230Z,2.80
2018-05-07T05:17:38.431Z,2.40
2018-05-07T05:20:04.613Z,2.80
2018-05-07T05:22:32.299Z,2.80
2018-05-07T05:24:58.791Z,2.90
2018-05-07T05:27:26.119Z,2.93
2018-05-07T05:29:53.349Z,2.80
2018-05-07T05:32:20.299Z,2.60
2018-05-07T05:34:47.309Z,2.90
2018-05-07T05:37:14.350Z,2.37
2018-05-07T05:39:40.529Z,2.70
2018-05-07T05:42:06.744Z,2.80
2018-05-07T05:44:33.656Z,2.50
2018-05-07T05:47:00.585Z,2.73
2018-05-07T05:49:26.897Z,2.50
2018-05-07T05:51:53.716Z,2.80
2018-05-07T05:54:20.634Z,2.60
2018-05-07T05:56:46.845Z,2.50
2018-05-07T05:59:14.369Z,2.90
2018-05-07T06:01:40.869Z,2.57
2018-05-07T06:04:07.647Z,3.07
2018-05-07T06:06:33.857Z,2.80
2018-05-07T06:09:00.213Z,2.27
2018-05-07T06:11:27.177Z,2.50
2018-05-07T06:13:55.137Z,2.43
2018-05-07T06:16:22.142Z,2.83
2018-05-07T06:18:48.381Z,2.33
2018-05-07T06:21:15.104Z,2.43
2018-05-07T06:23:41.774Z,2.83
2018-05-07T06:26:08.735Z,2.43
2018-05-07T06:28:35.100Z,2.90
2018-05-07T06:31:02.106Z,2.10
2018-05-07T06:33:29.459Z,2.80
2018-05-07T06:35:55.649Z,2.50
2018-05-07T06:38:22.519Z,2.27
2018-05-07T06:40:49.768Z,3.07
2018-05-07T06:43:15.958Z,2.70
2018-05-07T06:45:43.147Z,2.40
2018-05-07T06:48:09.290Z,2.37
2018-05-07T07:00:21.344Z,2.70
2018-05-07T07:02:48.342Z,2.70
2018-05-07T07:05:15.089Z,2.60
2018-05-07T07:07:41.833Z,2.30
2018-05-07T07:10:08.368Z,2.67
2018-05-07T07:12:35.062Z,2.50
2018-05-07T07:15:02.814Z,2.40
2018-05-07T07:17:30.013Z,2.47
2018-05-07T07:19:57.274Z,2.37
2018-05-07T07:22:24.089Z,2.57
2018-05-07T07:24:51.380Z,2.70
2018-05-07T07:27:17.581Z,2.20
2018-05-07T07:29:44.302Z,2.30
2018-05-07T07:32:11.325Z,2.70
2018-05-07T07:34:38.575Z,3.00
2018-05-07T07:37:05.364Z,2.80
2018-05-07T07:39:31.894Z,2.50
2018-05-07T07:41:58.704Z,2.77
2018-05-07T07:44:25.640Z,2.87
2018-05-07T07:46:51.833Z,2.43
2018-05-07T07:49:18.018Z,2.33
2018-05-07T07:51:44.217Z,2.60
2018-05-07T07:54:10.400Z,2.50
2018-05-07T07:56:36.948Z,2.27
2018-05-07T07:59:03.207Z,2.40
2018-05-07T08:01:29.628Z,2.57
2018-05-07T08:03:55.841Z,2.27
2018-05-07T08:06:22.829Z,2.53
2018-05-07T08:08:50.380Z,2.40
2018-05-07T08:11:16.608Z,2.33
2018-05-07T08:13:44.001Z,2.40
2018-05-07T08:16:11.153Z,2.90
2018-05-07T08:18:37.336Z,2.70
2018-05-07T08:21:03.547Z,2.50
2018-05-07T08:23:29.771Z,2.33
2018-05-07T08:25:55.997Z,2.30
2018-05-07T08:28:22.678Z,2.53
2018-05-07T08:30:50.861Z,2.17
2018-05-07T08:33:17.684Z,2.37
2018-05-07T08:35:44.677Z,2.70
2018-05-07T08:38:11.964Z,2.50
2018-05-07T08:40:38.156Z,2.37
2018-05-07T08:43:05.047Z,2.70
2018-05-07T08:45:32.574Z,2.50
2018-05-07T08:47:59.434Z,3.00
2018-05-07T08:50:26.152Z,3.00
2018-05-07T08:52:52.976Z,3.07
2018-05-07T08:55:20.713Z,2.93
2018-05-07T08:57:47.510Z,2.20
2018-05-07T09:00:14.369Z,2.50
2018-05-07T09:02:41.794Z,2.60
2018-05-07T09:05:09.309Z,2.63
2018-05-07T09:07:35.713Z,2.77
2018-05-07T09:10:02.502Z,2.50
2018-05-07T09:12:28.732Z,2.50
2018-05-07T09:14:55.679Z,3.00
2018-05-07T09:17:22.497Z,3.03
2018-05-07T09:19:48.871Z,2.77
2018-05-07T09:22:15.864Z,3.07
2018-05-07T09:24:43.731Z,3.00
2018-05-07T09:27:10.527Z,2.70
2018-05-07T09:29:37.365Z,2.73
2018-05-07T09:32:04.362Z,2.70
2018-05-07T09:34:31.492Z,3.00
2018-05-07T09:36:58.887Z,2.33
2018-05-07T09:39:25.310Z,2.37
2018-05-07T09:41:53.001Z,2.87
2018-05-07T09:44:19.768Z,2.73
2018-05-07T09:46:46.585Z,2.20
2018-05-07T09:49:13.381Z,2.50
2018-05-07T09:51:40.872Z,2.90
2018-05-07T09:54:07.791Z,2.97
2018-05-07T09:56:47.360Z,2.60
2018-05-07T09:59:15.124Z,2.50
2018-05-07T10:01:42.429Z,3.07
2018-05-07T10:04:08.824Z,2.60
2018-05-07T10:06:36.487Z,3.03
2018-05-07T10:09:04.160Z,2.60
2018-05-07T10:11:31.838Z,2.43
2018-05-07T10:13:58.072Z,2.87
2018-05-07T10:16:25.899Z,2.53
2018-05-07T10:18:54.818Z,2.80
2018-05-07T10:21:21.081Z,2.70
2018-05-07T10:23:47.723Z,2.50
2018-05-07T10:26:15.306Z,2.40
2018-05-07T10:28:41.516Z,2.60
2018-05-07T10:31:08.780Z,2.30
2018-05-07T10:33:35.332Z,2.70
2018-05-07T10:36:02.302Z,2.30
2018-05-07T10:38:28.505Z,1.90
2018-05-07T10:40:55.900Z,2.27
2018-05-07T10:43:24.028Z,2.00
2018-05-07T10:45:51.987Z,1.90
2018-05-07T10:48:18.209Z,2.17
2018-05-07T10:50:44.425Z,1.67
2018-05-07T10:53:11.191Z,1.77
2018-05-07T10:55:38.785Z,2.80
2018-05-07T10:58:05.115Z,2.07
2018-05-07T11:00:31.325Z,2.13
2018-05-07T11:02:57.498Z,1.97
2018-05-07T11:05:24.229Z,2.10
2018-05-07T11:07:51.177Z,2.03
2018-05-07T11:10:18.129Z,2.03
2018-05-07T11:12:45.553Z,1.97
2018-05-07T11:15:11.765Z,1.80
2018-05-07T11:17:38.618Z,1.77
2018-05-07T11:20:05.809Z,1.90
2018-05-07T11:22:32.584Z,1.80
2018-05-07T11:24:59.037Z,1.90
2018-05-07T11:27:26.989Z,1.97
2018-05-07T11:29:53.194Z,1.93
2018-05-07T11:32:19.458Z,2.43
2018-05-07T11:34:46.005Z,1.80
2018-05-07T11:37:13.692Z,1.80
2018-05-07T11:39:41.878Z,2.30
2018-05-07T11:42:08.102Z,2.00
2018-05-07T11:44:34.831Z,1.93
2018-05-07T11:47:02.782Z,1.77
2018-05-07T11:49:29.945Z,2.03
2018-05-07T11:51:56.212Z,2.00
2018-05-07T11:54:22.407Z,1.90
2018-05-07T11:56:49.755Z,1.90
2018-05-07T11:59:17.844Z,1.77
2018-05-07T12:01:44.069Z,2.07
2018-05-07T12:04:11.284Z,1.70
2018-05-07T12:06:38.023Z,1.60
2018-05-07T12:09:04.343Z,1.73
2018-05-07T12:11:31.254Z,2.20
2018-05-07T12:13:57.450Z,1.70
2018-05-07T12:16:25.599Z,2.60
2018-05-07T12:18:52.025Z,1.73
2018-05-07T12:21:19.008Z,1.97
2018-05-07T12:23:45.967Z,1.77
2018-05-07T12:26:12.159Z,2.30
2018-05-07T12:28:39.787Z,1.73
2018-05-07T12:31:06.136Z,1.80
2018-05-07T12:33:32.312Z,1.70
2018-05-07T12:35:59.398Z,1.80
2018-05-07T12:38:27.308Z,1.80
2018-05-07T12:40:54.871Z,2.13
2018-05-07T12:43:22.371Z,2.37
2018-05-07T12:45:49.142Z,1.70
2018-05-07T12:48:15.880Z,1.70
2018-05-07T12:50:42.118Z,1.70
2018-05-07T12:53:09.264Z,1.77
2018-05-07T12:55:36.255Z,1.93
2018-05-07T12:58:02.466Z,2.20
2018-05-07T13:00:28.715Z,3.77
2018-05-07T13:02:54.928Z,1.90
2018-05-07T13:05:21.958Z,3.30
2018-05-07T13:07:48.988Z,3.03
2018-05-07T13:10:15.840Z,2.00
2018-05-07T13:12:43.360Z,2.13
2018-05-07T13:15:09.874Z,2.20
2018-05-07T13:17:37.439Z,2.10
2018-05-07T13:20:03.695Z,2.40
2018-05-07T13:22:30.477Z,2.10
2018-05-07T13:24:57.300Z,2.00
2018-05-07T13:27:23.442Z,2.90
2018-05-07T13:29:49.860Z,1.90
2018-05-07T13:32:16.110Z,2.00
2018-05-07T13:34:42.299Z,1.93
2018-05-07T13:37:09.657Z,2.37
2018-05-07T13:39:36.405Z,1.60
2018-05-07T13:42:03.374Z,2.70
2018-05-07T13:44:29.856Z,1.80
2018-05-07T13:46:57.079Z,2.00
2018-05-07T13:49:23.391Z,2.03
2018-05-07T13:51:49.927Z,1.77
2018-05-07T13:54:17.132Z,2.47
2018-05-07T13:56:43.382Z,1.80
2018-05-07T13:59:10.957Z,2.87
2018-05-07T14:01:37.204Z,2.40
2018-05-07T14:04:03.386Z,2.20
2018-05-07T14:06:29.589Z,2.43
2018-05-07T14:08:56.038Z,2.53
2018-05-07T14:11:23.554Z,2.20
2018-05-07T14:13:49.775Z,1.87
2018-05-07T14:16:15.967Z,2.00
2018-05-07T14:18:43.152Z,2.20
2018-05-07T14:21:09.438Z,2.17
2018-05-07T14:23:35.811Z,1.80
2018-05-07T14:26:02.177Z,2.10
2018-05-07T14:28:28.733Z,2.10
2018-05-07T14:30:54.970Z,2.00
2018-05-07T14:33:22.692Z,2.03
2018-05-07T14:35:49.119Z,1.90
2018-05-07T14:38:16.529Z,1.93
2018-05-07T14:40:44.172Z,2.13
2018-05-07T14:43:11.660Z,2.07
2018-05-07T14:45:38.849Z,1.80
2018-05-07T14:48:05.082Z,1.77
2018-05-07T14:50:31.982Z,1.73
2018-05-07T14:52:58.832Z,2.40
2018-05-07T14:55:25.707Z,1.60
2018-05-07T14:57:52.818Z,1.90
2018-05-07T15:00:19.562Z,1.97
2018-05-07T15:02:46.010Z,2.30
2018-05-07T15:05:12.528Z,1.93
2018-05-07T15:07:39.476Z,1.70
2018-05-07T15:10:05.769Z,1.67
2018-05-07T15:12:32.866Z,1.70
2018-05-07T15:15:00.467Z,1.93
2018-05-07T15:17:26.715Z,1.90
2018-05-07T15:19:54.308Z,2.20
2018-05-07T15:22:21.096Z,1.70
2018-05-07T15:24:49.164Z,1.70
2018-05-07T15:27:15.499Z,1.80
2018-05-07T15:29:41.769Z,1.90
2018-05-07T15:32:08.568Z,1.90
2018-05-07T15:34:36.049Z,1.67
2018-05-07T15:37:03.956Z,1.60
2018-05-07T15:39:30.658Z,1.60
2018-05-07T15:41:57.617Z,1.90
2018-05-07T15:44:23.985Z,1.70
2018-05-07T15:46:51.494Z,1.63
2018-05-07T15:49:17.882Z,1.80
2018-05-07T15:51:45.360Z,2.40
2018-05-07T15:54:11.672Z,1.70
2018-05-07T15:56:38.469Z,1.70
2018-05-07T15:59:05.236Z,1.70
2018-05-07T16:01:31.914Z,2.10
2018-05-07T16:03:59.572Z,1.90
2018-05-07T16:06:28.020Z,1.80
2018-05-07T16:08:54.860Z,1.50
2018-05-07T16:11:21.277Z,1.60
2018-05-07T16:13:47.521Z,1.93
2018-05-07T16:16:14.762Z,1.73
2018-05-07T16:18:42.713Z,1.77
2018-05-07T16:21:09.573Z,1.90
2018-05-07T16:23:35.944Z,1.70
2018-05-07T16:26:03.057Z,1.40
2018-05-07T16:28:29.876Z,1.90
2018-05-07T16:30:56.859Z,1.87
2018-05-07T16:33:23.335Z,1.80
2018-05-07T16:35:51.254Z,2.13
2018-05-07T16:38:17.660Z,1.90
2018-05-07T16:40:44.015Z,1.50
2018-05-07T16:43:10.776Z,1.60
2018-05-07T16:45:38.669Z,2.00
2018-05-07T16:48:06.051Z,1.70
2018-05-07T16:50:32.834Z,1.70
2018-05-07T16:52:59.680Z,1.40
2018-05-07T16:55:26.869Z,1.80
2018-05-07T16:57:54.559Z,1.70
2018-05-07T17:00:22.007Z,1.80
2018-05-07T17:02:49.364Z,1.80
2018-05-07T17:05:17.346Z,1.70
2018-05-07T17:07:44.107Z,1.33
2018-05-07T17:10:11.928Z,1.70
2018-05-07T17:12:38.459Z,1.80
2018-05-07T17:15:06.535Z,1.70
2018-05-07T17:17:33.276Z,1.73
2018-05-07T17:19:59.970Z,2.20
2018-05-07T17:22:28.638Z,1.77
2018-05-07T17:24:56.030Z,2.00
2018-05-07T17:27:24.479Z,2.50
2018-05-07T17:29:51.250Z,2.00
2018-05-07T17:32:18.418Z,2.43
2018-05-07T17:34:45.252Z,2.10
2018-05-07T17:37:12.270Z,2.40
2018-05-07T17:39:39.037Z,2.07
2018-05-07T17:42:06.983Z,1.50
2018-05-07T17:44:45.564Z,2.53
2018-05-07T17:47:25.188Z,1.60
2018-05-07T17:49:51.409Z,1.70
2018-05-07T17:52:18.585Z,1.50
2018-05-07T17:54:45.317Z,1.60
2018-05-07T17:57:11.526Z,1.70
2018-05-07T17:59:38.102Z,3.10
2018-05-07T18:02:05.377Z,3.63
2018-05-07T18:04:32.088Z,1.50
2018-05-07T18:06:58.943Z,1.60
2018-05-07T18:09:25.188Z,1.53
2018-05-07T18:11:52.092Z,1.70
2018-05-07T18:14:19.596Z,1.33
2018-05-07T18:16:46.536Z,1.57
2018-05-07T18:19:13.513Z,1.50
2018-05-07T18:21:40.260Z,1.50
2018-05-07T18:24:07.112Z,1.77
2018-05-07T18:26:34.800Z,2.00
2018-05-07T18:29:01.061Z,1.40
2018-05-07T18:31:27.993Z,1.63
2018-05-07T18:33:54.504Z,1.40
2018-05-07T18:36:21.952Z,1.70
2018-05-07T18:38:50.083Z,1.50
2018-05-07T18:41:17.805Z,2.00
2018-05-07T18:43:44.596Z,1.87
2018-05-07T18:46:11.363Z,1.60
2018-05-07T18:48:37.565Z,1.43
2018-05-07T18:51:03.850Z,2.00
2018-05-07T18:53:30.122Z,1.63
2018-05-07T18:55:56.317Z,1.90
2018-05-07T18:58:22.557Z,2.10
2018-05-07T19:00:49.538Z,3.13
2018-05-07T19:03:16.406Z,3.27
2018-05-07T19:05:43.133Z,2.90
2018-05-07T19:08:09.954Z,2.10
2018-05-07T19:10:36.750Z,2.10
2018-05-07T19:13:02.987Z,2.10
2018-05-07T19:15:29.775Z,2.23
2018-05-07T19:17:55.986Z,5.87
2018-05-07T19:20:22.965Z,2.60
2018-05-07T19:22:50.091Z,3.13
2018-05-07T19:25:16.378Z,2.90
2018-05-07T19:27:43.187Z,3.43
2018-05-07T19:30:10.707Z,2.50
2018-05-07T19:32:38.349Z,2.10
2018-05-07T19:35:05.638Z,2.27
2018-05-07T19:37:32.008Z,2.33
2018-05-07T19:39:58.434Z,1.93
2018-05-07T19:42:24.810Z,1.93
2018-05-07T19:44:51.184Z,2.00
2018-05-07T19:47:18.088Z,2.30
2018-05-07T19:49:44.767Z,1.87
2018-05-07T19:52:12.664Z,2.30
2018-05-07T19:54:39.661Z,2.00
2018-05-07T19:57:06.420Z,2.20
2018-05-07T19:59:34.043Z,2.37
2018-05-07T20:02:00.322Z,2.33
2018-05-07T20:04:27.329Z,2.00
2018-05-07T20:06:53.651Z,3.27
2018-05-07T20:09:20.192Z,2.53
2018-05-07T20:11:46.424Z,2.83
2018-05-07T20:14:13.431Z,2.73
2018-05-07T20:16:39.561Z,2.80
2018-05-07T20:19:06.514Z,2.70
2018-05-07T20:21:33.798Z,3.23
2018-05-07T20:24:02.990Z,2.53
2018-05-07T20:26:29.216Z,3.10
2018-05-07T20:41:56.743Z,3.27
2018-05-07T20:44:30.049Z,2.70
2018-05-07T20:46:56.776Z,2.43
2018-05-07T20:49:24.564Z,2.67
2018-05-07T20:51:51.117Z,2.73
2018-05-07T20:54:19.424Z,3.00
2018-05-07T20:56:46.379Z,2.80
2018-05-07T20:59:13.231Z,2.40
2018-05-07T21:01:40.951Z,2.70
2018-05-07T21:04:07.411Z,2.73
2018-05-07T21:06:34.987Z,2.53
2018-05-07T21:09:03.230Z,2.40
2018-05-07T21:11:29.871Z,2.50
2018-05-07T21:13:56.839Z,2.30
2018-05-07T21:16:24.264Z,2.43
2018-05-07T21:18:51.397Z,2.63
2018-05-07T21:21:17.805Z,2.77
2018-05-07T21:23:44.711Z,2.63
2018-05-07T21:26:12.609Z,2.30
2018-05-07T21:28:39.349Z,2.80
2018-05-07T21:31:05.615Z,2.50
2018-05-07T21:33:32.430Z,2.80
2018-05-07T21:35:59.196Z,2.63
2018-05-07T21:38:25.681Z,2.57
2018-05-07T21:40:52.875Z,2.90
2018-05-07T21:43:20.595Z,2.80
2018-05-07T21:45:49.094Z,2.53
2018-05-07T21:48:15.959Z,2.63
2018-05-07T21:50:43.627Z,2.50
2018-05-07T21:53:10.161Z,2.83
2018-05-07T21:55:37.712Z,2.60
2018-05-07T21:58:04.067Z,2.97
2018-05-07T22:00:31.379Z,3.10
2018-05-07T22:02:59.540Z,3.07
2018-05-07T22:05:25.991Z,2.63
2018-05-07T22:07:53.444Z,2.60
2018-05-07T22:10:20.186Z,2.73
2018-05-07T22:12:46.942Z,2.53
2018-05-07T22:15:14.677Z,2.33
2018-05-07T22:17:41.445Z,3.00
2018-05-07T22:20:08.213Z,2.50
2018-05-07T22:22:35.437Z,2.90
2018-05-07T22:25:01.914Z,2.80
2018-05-07T22:27:28.988Z,3.00
2018-05-07T22:29:55.198Z,2.77
2018-05-07T22:32:23.151Z,3.07
2018-05-07T22:34:49.573Z,2.87
2018-05-07T22:37:16.034Z,3.03
2018-05-07T22:39:42.789Z,2.70
2018-05-07T22:42:09.577Z,3.20
2018-05-07T22:44:36.151Z,2.90
2018-05-07T22:47:03.273Z,3.00
2018-05-07T22:49:30.173Z,3.30
2018-05-07T22:52:01.531Z,2.77
2018-05-07T22:54:27.942Z,2.90
2018-05-07T22:56:55.625Z,3.10
2018-05-07T22:59:22.451Z,3.17
2018-05-07T23:01:50.458Z,3.07
2018-05-07T23:04:17.709Z,2.67
2018-05-07T23:06:45.344Z,3.03
2018-05-07T23:09:12.087Z,2.63
2018-05-07T23:11:38.274Z,3.07
2018-05-07T23:14:06.197Z,2.57
2018-05-07T23:16:32.465Z,3.10
2018-05-07T23:18:59.397Z,2.50
2018-05-07T23:21:25.795Z,2.77
2018-05-07T23:23:52.764Z,2.90
2018-05-07T23:26:19.162Z,3.20
2018-05-07T23:28:45.877Z,4.37
2018-05-07T23:31:12.101Z,3.40
2018-05-07T23:33:38.375Z,3.30
2018-05-07T23:36:04.577Z,3.20
2018-05-07T23:38:30.918Z,3.20
2018-05-07T23:40:57.640Z,2.60
2018-05-07T23:43:24.265Z,2.80
2018-05-07T23:45:50.710Z,3.03
2018-05-07T23:48:17.596Z,2.37
2018-05-07T23:50:45.184Z,2.53
2018-05-07T23:53:12.165Z,2.80
2018-05-07T23:55:38.920Z,2.93
2018-05-07T23:58:05.114Z,3.40
